createdAt,value
2023-02-21T00:02:38.561Z,15.17
2023-02-21T00:05:24.115Z,14.30
2023-02-21T00:08:09.346Z,15.40
2023-02-21T00:10:55.525Z,14.93
2023-02-21T00:13:40.587Z,16.07
2023-02-21T00:16:25.411Z,14.77
2023-02-21T00:19:10.483Z,14.77
2023-02-21T00:21:55.260Z,13.40
2023-02-21T00:24:40.303Z,13.57
2023-02-21T00:27:26.424Z,14.40
2023-02-21T00:30:11.289Z,13.40
2023-02-21T00:32:56.502Z,13.13
2023-02-21T00:35:42.116Z,12.93
2023-02-21T00:38:26.997Z,13.20
2023-02-21T00:41:12.116Z,14.60
2023-02-21T00:43:58.851Z,13.50
2023-02-21T00:46:43.832Z,14.23
2023-02-21T00:49:29.159Z,15.10
2023-02-21T00:52:13.967Z,14.97
2023-02-21T00:54:58.693Z,14.37
2023-02-21T00:57:44.151Z,13.50
2023-02-21T01:00:35.085Z,13.67
2023-02-21T01:03:19.909Z,13.77
2023-02-21T01:06:05.157Z,13.83
2023-02-21T01:08:50.071Z,14.80
2023-02-21T01:11:35.751Z,14.40
2023-02-21T01:14:20.664Z,13.70
2023-02-21T01:17:12.759Z,14.33
2023-02-21T01:19:57.964Z,14.27
2023-02-21T01:22:42.768Z,14.20
2023-02-21T01:25:27.655Z,14.70
2023-02-21T01:28:13.497Z,15.13
2023-02-21T01:30:59.164Z,14.13
2023-02-21T01:33:45.778Z,15.67
2023-02-21T01:36:31.216Z,16.30
2023-02-21T01:39:15.968Z,16.17
2023-02-21T01:42:00.868Z,15.87
2023-02-21T01:44:51.530Z,15.30
2023-02-21T01:47:36.661Z,16.30
2023-02-21T01:50:25.058Z,16.13
2023-02-21T01:53:10.460Z,14.87
2023-02-21T01:55:57.754Z,15.13
2023-02-21T01:58:44.022Z,16.47
2023-02-21T02:01:31.485Z,16.40
2023-02-21T02:04:17.452Z,15.90
2023-02-21T02:07:03.980Z,16.00
2023-02-21T02:09:48.919Z,15.50
2023-02-21T02:12:23.478Z,16.67
2023-02-21T02:15:06.138Z,16.23
2023-02-21T02:17:37.983Z,15.83
2023-02-21T02:20:19.858Z,16.57
2023-02-21T02:23:02.628Z,15.63
2023-02-21T02:25:41.075Z,16.20
2023-02-21T02:28:21.849Z,15.77
2023-02-21T02:31:14.685Z,16.47
2023-02-21T02:34:01.022Z,16.60
2023-02-21T02:36:31.072Z,16.67
2023-02-21T02:39:03.072Z,16.10
2023-02-21T02:41:35.412Z,15.07
2023-02-21T02:44:05.838Z,16.27
2023-02-21T02:46:35.932Z,15.60
2023-02-21T02:49:04.751Z,16.87
2023-02-21T02:51:35.280Z,15.20
2023-02-21T02:54:02.756Z,15.50
2023-02-21T02:56:30.266Z,15.77
2023-02-21T02:58:58.797Z,15.23
2023-02-21T03:01:40.240Z,14.07
2023-02-21T03:04:14.030Z,14.20
2023-02-21T03:06:48.505Z,14.23
2023-02-21T03:09:20.035Z,15.47
2023-02-21T03:11:52.162Z,14.93
2023-02-21T03:14:21.318Z,15.70
2023-02-21T03:16:51.058Z,14.73
2023-02-21T03:19:19.674Z,14.03
2023-02-21T03:21:50.689Z,12.77
2023-02-21T03:24:19.810Z,13.80
2023-02-21T03:26:48.676Z,12.40
2023-02-21T03:29:16.648Z,11.73
2023-02-21T03:31:45.865Z,11.93
2023-02-21T03:34:13.548Z,13.30
2023-02-21T03:36:41.281Z,11.63
2023-02-21T03:39:10.152Z,12.23
2023-02-21T03:41:37.604Z,12.33
2023-02-21T03:44:05.204Z,12.27
2023-02-21T03:46:33.164Z,11.30
2023-02-21T03:49:00.706Z,12.27
2023-02-21T03:51:28.124Z,13.93
2023-02-21T03:53:55.505Z,14.67
2023-02-21T03:56:28.085Z,15.33
2023-02-21T03:59:00.903Z,14.83
2023-02-21T04:01:28.321Z,14.90
2023-02-21T04:03:55.837Z,15.77
2023-02-21T04:06:23.327Z,16.23
2023-02-21T04:08:52.285Z,16.43
2023-02-21T04:11:19.861Z,17.00
2023-02-21T04:13:48.867Z,15.90
2023-02-21T04:16:16.394Z,16.57
2023-02-21T04:18:43.896Z,16.67
2023-02-21T04:21:11.456Z,16.77
2023-02-21T04:23:39.153Z,15.63
2023-02-21T04:26:06.591Z,16.70
2023-02-21T04:28:34.032Z,15.03
2023-02-21T04:31:02.833Z,15.60
2023-02-21T04:33:30.302Z,15.80
2023-02-21T04:35:57.880Z,15.40
2023-02-21T04:38:25.303Z,16.83
2023-02-21T04:40:52.706Z,16.03
2023-02-21T04:43:21.118Z,16.10
2023-02-21T04:45:48.596Z,16.47
2023-02-21T04:48:17.765Z,15.23
2023-02-21T04:50:45.189Z,17.07
2023-02-21T04:53:12.610Z,16.87
2023-02-21T04:55:40.124Z,16.13
2023-02-21T04:58:07.734Z,17.20
2023-02-21T05:00:35.288Z,17.10
2023-02-21T05:03:02.804Z,17.20
2023-02-21T05:05:31.639Z,17.40
2023-02-21T05:07:59.067Z,17.50
2023-02-21T05:10:48.289Z,17.07
2023-02-21T05:13:14.267Z,17.00
2023-02-21T05:15:41.679Z,17.87
2023-02-21T05:18:09.145Z,17.90
2023-02-21T05:20:38.019Z,18.77
2023-02-21T05:23:13.484Z,17.30
2023-02-21T05:25:41.576Z,17.60
2023-02-21T05:28:09.078Z,18.90
2023-02-21T05:30:36.635Z,17.80
2023-02-21T05:33:04.385Z,18.30
2023-02-21T05:35:31.797Z,17.80
2023-02-21T05:38:00.593Z,18.87
2023-02-21T05:40:28.064Z,17.50
2023-02-21T05:42:55.531Z,18.30
2023-02-21T05:45:22.966Z,17.87
2023-02-21T05:47:50.400Z,17.23
2023-02-21T05:50:17.927Z,18.00
2023-02-21T05:52:45.293Z,19.20
2023-02-21T05:55:14.354Z,18.13
2023-02-21T05:57:41.739Z,18.23
2023-02-21T06:00:14.443Z,17.43
2023-02-21T06:02:41.821Z,16.90
2023-02-21T06:05:09.278Z,16.80
2023-02-21T06:07:36.669Z,17.90
2023-02-21T06:10:04.436Z,17.50
2023-02-21T06:12:33.168Z,18.03
2023-02-21T06:15:00.672Z,18.73
2023-02-21T06:17:28.142Z,17.87
2023-02-21T06:19:56.894Z,17.20
2023-02-21T06:22:24.287Z,18.03
2023-02-21T06:24:52.246Z,17.80
2023-02-21T06:27:19.687Z,17.63
2023-02-21T06:29:48.493Z,17.63
2023-02-21T06:32:15.964Z,17.67
2023-02-21T06:34:44.456Z,17.90
2023-02-21T06:37:12.134Z,17.83
2023-02-21T06:39:39.623Z,17.70
2023-02-21T06:42:07.353Z,18.87
2023-02-21T06:44:34.830Z,22.47
2023-02-21T06:47:03.619Z,21.13
2023-02-21T06:49:30.986Z,17.20
2023-02-21T06:51:58.407Z,17.43
2023-02-21T06:54:25.805Z,17.77
2023-02-21T06:56:53.200Z,16.90
2023-02-21T06:59:20.618Z,16.57
2023-02-21T07:01:48.148Z,16.47
2023-02-21T07:04:17.160Z,18.43
2023-02-21T07:06:44.590Z,16.60
2023-02-21T07:09:11.998Z,16.77
2023-02-21T07:11:39.428Z,16.77
2023-02-21T07:14:06.949Z,15.80
2023-02-21T07:16:34.400Z,15.83
2023-02-21T07:19:01.819Z,16.17
2023-02-21T07:21:30.520Z,16.53
2023-02-21T07:23:57.994Z,15.10
2023-02-21T07:26:25.392Z,14.23
2023-02-21T07:28:52.850Z,14.93
2023-02-21T07:31:20.823Z,15.30
2023-02-21T07:33:48.488Z,14.50
2023-02-21T07:36:15.983Z,14.17
2023-02-21T07:38:44.792Z,13.40
2023-02-21T07:41:12.373Z,13.63
2023-02-21T07:43:40.193Z,13.70
2023-02-21T07:46:10.282Z,13.63
2023-02-21T07:48:37.787Z,13.27
2023-02-21T07:51:05.256Z,13.00
2023-02-21T07:53:32.886Z,13.30
2023-02-21T07:56:01.673Z,13.03
2023-02-21T07:58:29.065Z,13.70
2023-02-21T08:00:56.547Z,13.30
2023-02-21T08:03:23.951Z,14.20
2023-02-21T08:05:51.347Z,14.83
2023-02-21T08:08:18.778Z,13.80
2023-02-21T08:10:46.210Z,15.20
2023-02-21T08:13:14.973Z,15.80
2023-02-21T08:15:42.424Z,15.23
2023-02-21T08:18:18.548Z,15.73
2023-02-21T08:20:45.982Z,17.80
2023-02-21T08:23:13.908Z,16.83
2023-02-21T08:25:41.294Z,16.13
2023-02-21T08:28:08.783Z,16.90
2023-02-21T08:30:37.604Z,18.10
2023-02-21T08:33:05.127Z,17.50
2023-02-21T08:35:32.578Z,18.20
2023-02-21T08:38:03.142Z,20.53
2023-02-21T08:40:30.835Z,20.07
2023-02-21T08:42:58.993Z,20.97
2023-02-21T08:45:27.360Z,19.50
2023-02-21T08:47:56.199Z,19.00
2023-02-21T08:50:25.138Z,21.00
2023-02-21T08:52:52.970Z,21.40
2023-02-21T08:55:21.064Z,20.70
2023-02-21T08:57:49.306Z,19.20
2023-02-21T09:00:18.244Z,17.90
2023-02-21T09:02:45.856Z,19.37
2023-02-21T09:05:15.701Z,19.70
2023-02-21T09:07:43.425Z,18.10
2023-02-21T09:10:11.208Z,20.70
2023-02-21T09:12:38.836Z,21.30
2023-02-21T09:15:06.510Z,20.33
2023-02-21T09:17:34.755Z,19.93
2023-02-21T09:20:02.339Z,19.67
2023-02-21T09:22:31.702Z,19.83
2023-02-21T09:24:59.794Z,20.20
2023-02-21T09:27:36.473Z,21.40
2023-02-21T09:30:07.529Z,21.60
2023-02-21T09:32:35.161Z,21.93
2023-02-21T09:35:02.638Z,23.03
2023-02-21T09:37:32.421Z,23.20
2023-02-21T09:40:00.049Z,23.73
2023-02-21T09:42:30.288Z,22.10
2023-02-21T09:44:57.697Z,21.70
2023-02-21T09:47:28.534Z,22.57
2023-02-21T09:49:59.106Z,22.50
2023-02-21T09:52:29.709Z,22.10
2023-02-21T09:54:59.876Z,20.80
2023-02-21T09:57:27.403Z,22.17
2023-02-21T09:59:54.837Z,24.27
2023-02-21T10:02:31.648Z,23.27
2023-02-21T10:05:03.806Z,23.60
2023-02-21T10:07:36.022Z,23.43
2023-02-21T10:10:06.978Z,22.40
2023-02-21T10:12:36.784Z,22.87
2023-02-21T10:15:16.891Z,22.80
2023-02-21T10:17:47.014Z,21.63
2023-02-21T10:20:16.354Z,21.00
2023-02-21T10:22:47.253Z,22.30
2023-02-21T10:25:22.465Z,23.90
2023-02-21T10:27:50.468Z,24.20
2023-02-21T10:30:21.405Z,21.90
2023-02-21T10:32:48.973Z,23.53
2023-02-21T10:35:16.732Z,22.50
2023-02-21T10:37:45.994Z,22.67
2023-02-21T10:40:19.220Z,22.77
2023-02-21T10:42:54.409Z,23.97
2023-02-21T10:45:25.066Z,22.97
2023-02-21T10:47:57.817Z,24.00
2023-02-21T10:50:38.818Z,24.47
2023-02-21T10:53:08.866Z,22.03
2023-02-21T10:55:36.312Z,22.53
2023-02-21T10:58:09.657Z,23.10
2023-02-21T11:00:38.267Z,23.30
2023-02-21T11:03:07.789Z,24.00
2023-02-21T11:05:37.171Z,24.20
2023-02-21T11:08:07.123Z,22.90
2023-02-21T11:10:35.921Z,22.10
2023-02-21T11:13:13.511Z,23.07
2023-02-21T11:15:41.134Z,23.07
2023-02-21T11:18:16.433Z,22.30
2023-02-21T11:20:44.265Z,22.20
2023-02-21T11:23:22.691Z,22.60
2023-02-21T11:25:51.140Z,22.40
2023-02-21T11:28:21.612Z,22.70
2023-02-21T11:30:51.154Z,20.90
2023-02-21T11:33:20.728Z,22.87
2023-02-21T11:35:49.170Z,21.90
2023-02-21T11:38:35.829Z,21.30
2023-02-21T11:41:03.883Z,21.30
2023-02-21T11:43:33.027Z,20.90
2023-02-21T11:46:06.105Z,21.40
2023-02-21T11:48:36.816Z,21.40
2023-02-21T11:51:07.381Z,21.30
2023-02-21T11:53:37.916Z,20.03
2023-02-21T11:56:08.582Z,21.03
2023-02-21T11:58:42.968Z,19.90
2023-02-21T12:01:13.284Z,19.57
2023-02-21T12:03:49.967Z,19.77
2023-02-21T12:06:21.997Z,19.50
2023-02-21T12:08:52.062Z,18.70
2023-02-21T12:11:26.551Z,19.33
2023-02-21T12:14:00.656Z,18.43
2023-02-21T12:16:34.631Z,19.40
2023-02-21T12:19:10.944Z,19.27
2023-02-21T12:21:48.553Z,18.07
2023-02-21T12:24:24.146Z,18.47
2023-02-21T12:26:55.666Z,17.50
2023-02-21T12:29:30.236Z,17.47
2023-02-21T12:32:06.536Z,17.20
2023-02-21T12:34:39.839Z,16.97
2023-02-21T12:37:14.251Z,17.30
2023-02-21T12:39:51.937Z,16.37
2023-02-21T12:42:28.052Z,17.30
2023-02-21T12:45:03.524Z,16.30
2023-02-21T12:47:33.472Z,17.30
2023-02-21T12:50:02.733Z,16.20
2023-02-21T12:52:33.485Z,15.90
2023-02-21T12:55:04.096Z,16.00
2023-02-21T12:57:34.306Z,15.60
2023-02-21T13:00:08.092Z,16.93
2023-02-21T13:02:39.379Z,15.10
2023-02-21T13:05:13.736Z,15.93
2023-02-21T13:07:44.831Z,14.43
2023-02-21T13:10:16.307Z,15.20
2023-02-21T13:12:45.963Z,16.20
2023-02-21T13:15:20.465Z,15.80
2023-02-21T13:17:51.699Z,14.80
2023-02-21T13:20:21.263Z,15.03
2023-02-21T13:23:24.877Z,15.10
2023-02-21T13:25:57.719Z,14.40
2023-02-21T13:28:26.196Z,15.03
2023-02-21T13:30:58.870Z,15.17
2023-02-21T13:33:28.903Z,14.73
2023-02-21T13:35:59.122Z,15.10
2023-02-21T13:38:27.971Z,14.50
2023-02-21T13:41:03.789Z,13.60
2023-02-21T13:43:32.473Z,13.33
2023-02-21T13:46:23.493Z,13.83
2023-02-21T13:49:05.805Z,13.90
2023-02-21T13:51:46.376Z,14.33
2023-02-21T13:54:13.918Z,14.63
2023-02-21T13:56:42.441Z,15.97
2023-02-21T13:59:33.436Z,16.60
2023-02-21T14:02:19.449Z,17.97
2023-02-21T14:05:02.218Z,19.53
2023-02-21T14:07:54.003Z,18.50
2023-02-21T14:10:26.382Z,18.00
2023-02-21T14:12:58.293Z,18.13
2023-02-21T14:15:36.636Z,17.47
2023-02-21T14:18:04.115Z,18.10
2023-02-21T14:20:31.520Z,19.00
2023-02-21T14:22:59.882Z,17.03
2023-02-21T14:25:28.772Z,17.93
2023-02-21T14:27:57.087Z,17.73
2023-02-21T14:30:29.458Z,16.50
2023-02-21T14:33:01.141Z,17.73
2023-02-21T14:35:34.067Z,18.80
2023-02-21T14:38:03.001Z,17.70
2023-02-21T14:40:37.770Z,17.80
2023-02-21T14:43:18.169Z,18.50
2023-02-21T14:45:56.640Z,17.30
2023-02-21T14:48:43.658Z,19.07
2023-02-21T14:51:35.192Z,18.47
2023-02-21T14:54:10.643Z,17.43
2023-02-21T14:56:53.011Z,18.60
2023-02-21T14:59:32.994Z,18.67
2023-02-21T15:02:08.279Z,18.57
2023-02-21T15:04:38.323Z,18.90
2023-02-21T15:07:11.783Z,19.73
2023-02-21T15:09:39.303Z,19.67
2023-02-21T15:12:09.495Z,18.67
2023-02-21T15:14:41.606Z,19.50
2023-02-21T15:17:13.201Z,17.67
2023-02-21T15:19:40.885Z,18.60
2023-02-21T15:22:16.204Z,19.97
2023-02-21T15:24:56.711Z,18.83
2023-02-21T15:27:24.198Z,19.00
2023-02-21T15:30:05.679Z,19.47
2023-02-21T15:32:34.081Z,19.57
2023-02-21T15:35:03.353Z,20.10
2023-02-21T15:37:31.388Z,19.77
2023-02-21T15:40:00.170Z,21.10
2023-02-21T15:42:28.425Z,20.20
2023-02-21T15:44:58.240Z,18.47
2023-02-21T15:47:27.751Z,19.73
2023-02-21T15:50:00.601Z,18.73
2023-02-21T15:52:29.544Z,19.47
2023-02-21T15:55:12.233Z,19.77
2023-02-21T15:57:39.885Z,21.07
2023-02-21T16:00:22.110Z,20.33
2023-02-21T16:02:50.979Z,20.80
2023-02-21T16:05:25.229Z,19.97
2023-02-21T16:07:54.176Z,18.93
2023-02-21T16:10:23.183Z,20.00
2023-02-21T16:12:55.413Z,21.73
2023-02-21T16:15:25.455Z,19.27
2023-02-21T16:17:55.917Z,19.33
2023-02-21T16:20:25.437Z,20.00
2023-02-21T16:23:12.601Z,20.27
2023-02-21T16:25:55.320Z,20.00
2023-02-21T16:28:22.982Z,19.90
2023-02-21T16:30:50.565Z,19.33
2023-02-21T16:33:19.498Z,19.67
2023-02-21T16:35:47.116Z,19.57
2023-02-21T16:38:15.721Z,21.20
2023-02-21T16:40:43.214Z,20.10
2023-02-21T16:43:16.666Z,18.90
2023-02-21T16:45:44.390Z,20.30
2023-02-21T16:48:15.768Z,20.63
2023-02-21T16:50:46.693Z,19.00
2023-02-21T16:53:14.371Z,19.70
2023-02-21T16:55:42.496Z,19.87
2023-02-21T16:58:17.589Z,20.60
2023-02-21T17:00:45.061Z,20.90
2023-02-21T17:03:12.508Z,21.23
2023-02-21T17:05:39.930Z,20.23
2023-02-21T17:08:08.708Z,22.50
2023-02-21T17:10:36.573Z,22.07
2023-02-21T17:13:04.201Z,21.13
2023-02-21T17:15:32.390Z,22.40
2023-02-21T17:18:00.144Z,21.67
2023-02-21T17:20:27.838Z,21.87
2023-02-21T17:22:55.921Z,22.17
2023-02-21T17:25:25.071Z,22.67
2023-02-21T17:27:52.563Z,21.67
2023-02-21T17:30:21.374Z,22.50
2023-02-21T17:32:48.807Z,22.00
2023-02-21T17:35:16.903Z,21.10
2023-02-21T17:37:44.765Z,21.63
2023-02-21T17:40:12.468Z,22.70
2023-02-21T17:42:41.469Z,22.83
2023-02-21T17:45:09.433Z,21.80
2023-02-21T17:47:36.914Z,23.40
2023-02-21T17:50:05.230Z,23.17
2023-02-21T17:52:33.245Z,23.80
2023-02-21T17:55:02.580Z,23.20
2023-02-21T17:57:35.007Z,22.93
2023-02-21T18:00:04.709Z,24.27
2023-02-21T18:02:32.127Z,22.43
2023-02-21T18:05:00.874Z,23.17
2023-02-21T18:07:32.012Z,23.07
2023-02-21T18:10:00.008Z,24.47
2023-02-21T18:12:27.577Z,24.00
2023-02-21T18:14:55.566Z,23.10
2023-02-21T18:17:24.458Z,24.17
2023-02-21T18:19:51.949Z,23.53
2023-02-21T18:22:19.486Z,23.83
2023-02-21T18:24:46.938Z,24.90
2023-02-21T18:27:15.574Z,23.00
2023-02-21T18:29:42.986Z,23.33
2023-02-21T18:32:10.564Z,23.20
2023-02-21T18:34:39.480Z,26.13
2023-02-21T18:37:08.239Z,25.60
2023-02-21T18:39:35.633Z,25.03
2023-02-21T18:42:03.087Z,26.17
2023-02-21T18:44:31.787Z,24.20
2023-02-21T18:46:59.661Z,26.30
2023-02-21T18:49:27.315Z,26.10
2023-02-21T18:51:56.077Z,25.37
2023-02-21T18:54:23.528Z,24.63
2023-02-21T18:56:52.041Z,27.00
2023-02-21T18:59:20.109Z,26.00
2023-02-21T19:01:49.122Z,25.20
2023-02-21T19:04:16.621Z,27.80
2023-02-21T19:06:44.082Z,26.70
2023-02-21T19:09:12.831Z,27.57
2023-02-21T19:11:40.367Z,24.87
2023-02-21T19:14:07.828Z,27.13
2023-02-21T19:16:35.390Z,24.53
2023-02-21T19:19:03.835Z,26.10
2023-02-21T19:21:31.931Z,23.50
2023-02-21T19:24:00.113Z,25.40
2023-02-21T19:26:30.726Z,26.20
2023-02-21T19:28:58.147Z,25.60
2023-02-21T19:31:25.714Z,25.67
2023-02-21T19:33:53.287Z,25.30
2023-02-21T19:36:21.629Z,24.80
2023-02-21T19:38:49.198Z,26.20
2023-02-21T19:41:17.911Z,25.67
2023-02-21T19:43:47.185Z,22.90
2023-02-21T19:46:21.625Z,22.50
2023-02-21T19:48:49.309Z,21.97
2023-02-21T19:51:17.453Z,20.40
2023-02-21T19:53:45.344Z,21.33
2023-02-21T19:56:12.768Z,22.43
2023-02-21T19:58:40.202Z,22.70
2023-02-21T20:01:09.393Z,20.00
2023-02-21T20:03:36.894Z,21.30
2023-02-21T20:06:04.554Z,21.10
2023-02-21T20:08:32.203Z,20.90
2023-02-21T20:10:59.740Z,20.00
2023-02-21T20:13:27.217Z,19.33
2023-02-21T20:15:54.809Z,19.80
2023-02-21T20:18:23.589Z,19.27
2023-02-21T20:20:51.070Z,19.47
2023-02-21T20:23:19.103Z,20.10
2023-02-21T20:25:46.616Z,22.10
2023-02-21T20:28:14.040Z,17.70
2023-02-21T20:30:41.504Z,19.13
2023-02-21T20:33:08.982Z,20.03
2023-02-21T20:35:37.865Z,18.50
2023-02-21T20:38:06.043Z,20.70
2023-02-21T20:40:33.585Z,22.20
2023-02-21T20:43:01.185Z,23.63
2023-02-21T20:45:28.700Z,20.40
2023-02-21T20:47:56.217Z,18.40
2023-02-21T20:50:24.382Z,18.90
2023-02-21T20:52:54.582Z,18.50
2023-02-21T20:55:22.268Z,18.13
2023-02-21T20:57:49.963Z,18.90
2023-02-21T21:00:23.368Z,20.87
2023-02-21T21:02:50.854Z,18.83
2023-02-21T21:05:18.623Z,19.70
2023-02-21T21:07:46.440Z,21.27
2023-02-21T21:10:16.390Z,22.10
2023-02-21T21:12:44.492Z,19.40
2023-02-21T21:15:14.270Z,20.20
2023-02-21T21:17:41.679Z,24.43
2023-02-21T21:20:10.300Z,22.00
2023-02-21T21:22:37.754Z,19.80
2023-02-21T21:25:06.083Z,19.80
2023-02-21T21:27:34.821Z,22.37
2023-02-21T21:30:03.759Z,19.13
2023-02-21T21:32:31.213Z,21.27
2023-02-21T21:34:59.028Z,23.30
2023-02-21T21:37:27.568Z,22.50
2023-02-21T21:39:55.606Z,20.03
2023-02-21T21:42:24.992Z,22.00
2023-02-21T21:44:54.630Z,19.47
2023-02-21T21:47:22.607Z,19.00
2023-02-21T21:49:50.491Z,21.30
2023-02-21T21:52:19.807Z,18.50
2023-02-21T21:54:47.522Z,19.50
2023-02-21T21:57:16.280Z,18.37
2023-02-21T21:59:44.389Z,17.73
2023-02-21T22:02:14.001Z,18.07
2023-02-21T22:04:41.512Z,16.63
2023-02-21T22:07:09.852Z,17.00
2023-02-21T22:09:37.265Z,16.67
2023-02-21T22:12:05.934Z,16.50
2023-02-21T22:14:33.309Z,16.27
2023-02-21T22:17:01.058Z,15.70
2023-02-21T22:19:29.885Z,16.00
2023-02-21T22:21:59.213Z,16.37
2023-02-21T22:24:26.665Z,14.80
2023-02-21T22:26:54.609Z,15.70
2023-02-21T22:29:22.511Z,15.13
2023-02-21T22:31:52.381Z,15.43
2023-02-21T22:34:24.064Z,16.20
2023-02-21T22:36:53.433Z,15.73
2023-02-21T22:39:21.668Z,15.20
2023-02-21T22:41:49.365Z,14.30
2023-02-21T22:44:17.165Z,14.33
2023-02-21T22:46:45.466Z,15.17
2023-02-21T22:49:15.696Z,16.30
2023-02-21T22:51:43.213Z,15.53
2023-02-21T22:54:14.851Z,15.40
2023-02-21T22:56:50.834Z,15.23
2023-02-21T22:59:19.546Z,15.63
2023-02-21T23:01:46.982Z,15.07
2023-02-21T23:04:25.325Z,14.43
2023-02-21T23:06:53.795Z,14.23
2023-02-21T23:09:24.444Z,14.43
2023-02-21T23:11:53.271Z,14.97
2023-02-21T23:14:21.990Z,14.30
2023-02-21T23:16:49.703Z,14.50
2023-02-21T23:19:17.933Z,16.40
2023-02-21T23:21:45.894Z,14.70
2023-02-21T23:24:14.506Z,14.60
2023-02-21T23:26:44.998Z,14.90
2023-02-21T23:29:12.826Z,14.73
2023-02-21T23:31:40.909Z,15.10
2023-02-21T23:34:08.484Z,15.27
2023-02-21T23:36:39.159Z,13.97
2023-02-21T23:39:09.062Z,15.70
2023-02-21T23:41:38.882Z,14.30
2023-02-21T23:44:10.870Z,14.60
2023-02-21T23:46:40.337Z,14.57
2023-02-21T23:49:10.738Z,14.73
2023-02-21T23:51:38.365Z,15.53
2023-02-21T23:54:07.036Z,15.57
2023-02-21T23:56:35.383Z,14.80
2023-02-21T23:59:05.842Z,15.40
